sensor_id;sensor_type;location;lat;lon;timestamp;P1;durP1;ratioP1;P2;durP2;ratioP2
18449;SDS011;9354;50.194;7.690;2023-09-19T00:00:17;1.93;;;1.57;;
18449;SDS011;9354;50.194;7.690;2023-09-19T00:02:46;2.47;;;1.50;;
18449;SDS011;9354;50.194;7.690;2023-09-19T00:05:18;4.77;;;1.70;;
18449;SDS011;9354;50.194;7.690;2023-09-19T00:07:49;4.27;;;1.70;;
18449;SDS011;9354;50.194;7.690;2023-09-19T00:10:19;1.90;;;1.40;;
18449;SDS011;9354;50.194;7.690;2023-09-19T00:12:50;3.90;;;1.63;;
18449;SDS011;9354;50.194;7.690;2023-09-19T00:15:19;7.27;;;1.80;;
18449;SDS011;9354;50.194;7.690;2023-09-19T00:17:46;2.53;;;1.50;;
18449;SDS011;9354;50.194;7.690;2023-09-19T00:20:14;3.83;;;1.70;;
18449;SDS011;9354;50.194;7.690;2023-09-19T00:22:42;4.50;;;1.83;;
18449;SDS011;9354;50.194;7.690;2023-09-19T00:25:11;4.77;;;1.67;;
18449;SDS011;9354;50.194;7.690;2023-09-19T00:27:41;4.53;;;1.73;;
18449;SDS011;9354;50.194;7.690;2023-09-19T00:30:10;7.77;;;2.17;;
18449;SDS011;9354;50.194;7.690;2023-09-19T00:32:42;5.00;;;1.90;;
18449;SDS011;9354;50.194;7.690;2023-09-19T00:35:10;3.37;;;1.57;;
18449;SDS011;9354;50.194;7.690;2023-09-19T00:37:37;4.13;;;1.80;;
18449;SDS011;9354;50.194;7.690;2023-09-19T00:40:06;5.37;;;1.67;;
18449;SDS011;9354;50.194;7.690;2023-09-19T00:42:38;5.80;;;1.60;;
18449;SDS011;9354;50.194;7.690;2023-09-19T00:45:06;3.20;;;1.60;;
18449;SDS011;9354;50.194;7.690;2023-09-19T00:47:38;3.40;;;1.70;;
18449;SDS011;9354;50.194;7.690;2023-09-19T00:50:07;5.00;;;1.83;;
18449;SDS011;9354;50.194;7.690;2023-09-19T00:52:36;3.73;;;1.90;;
18449;SDS011;9354;50.194;7.690;2023-09-19T00:55:05;6.33;;;1.80;;
18449;SDS011;9354;50.194;7.690;2023-09-19T00:57:34;4.20;;;2.17;;
18449;SDS011;9354;50.194;7.690;2023-09-19T01:00:04;4.23;;;1.67;;
18449;SDS011;9354;50.194;7.690;2023-09-19T01:02:34;5.77;;;1.60;;
18449;SDS011;9354;50.194;7.690;2023-09-19T01:05:04;4.27;;;1.60;;
18449;SDS011;9354;50.194;7.690;2023-09-19T01:07:33;2.03;;;1.57;;
18449;SDS011;9354;50.194;7.690;2023-09-19T01:10:00;3.43;;;1.43;;
18449;SDS011;9354;50.194;7.690;2023-09-19T01:12:33;3.90;;;1.53;;
18449;SDS011;9354;50.194;7.690;2023-09-19T01:15:10;2.63;;;1.40;;
18449;SDS011;9354;50.194;7.690;2023-09-19T01:17:42;7.07;;;1.57;;
18449;SDS011;9354;50.194;7.690;2023-09-19T01:20:19;3.43;;;1.27;;
18449;SDS011;9354;50.194;7.690;2023-09-19T01:22:57;3.80;;;1.40;;
18449;SDS011;9354;50.194;7.690;2023-09-19T01:25:42;3.93;;;1.23;;
18449;SDS011;9354;50.194;7.690;2023-09-19T01:28:31;4.97;;;1.30;;
18449;SDS011;9354;50.194;7.690;2023-09-19T01:31:09;5.37;;;1.40;;
18449;SDS011;9354;50.194;7.690;2023-09-19T01:33:53;5.07;;;1.20;;
18449;SDS011;9354;50.194;7.690;2023-09-19T01:36:23;2.53;;;1.00;;
18449;SDS011;9354;50.194;7.690;2023-09-19T01:38:50;2.90;;;1.20;;
18449;SDS011;9354;50.194;7.690;2023-09-19T01:41:20;4.00;;;1.20;;
18449;SDS011;9354;50.194;7.690;2023-09-19T01:44:17;3.90;;;1.10;;
18449;SDS011;9354;50.194;7.690;2023-09-19T01:46:51;4.33;;;1.30;;
18449;SDS011;9354;50.194;7.690;2023-09-19T01:49:23;3.97;;;1.20;;
18449;SDS011;9354;50.194;7.690;2023-09-19T01:52:02;3.30;;;0.80;;
18449;SDS011;9354;50.194;7.690;2023-09-19T01:54:40;1.93;;;1.00;;
18449;SDS011;9354;50.194;7.690;2023-09-19T01:57:16;4.47;;;1.00;;
18449;SDS011;9354;50.194;7.690;2023-09-19T01:59:54;8.40;;;1.30;;
18449;SDS011;9354;50.194;7.690;2023-09-19T02:02:33;6.57;;;1.00;;
18449;SDS011;9354;50.194;7.690;2023-09-19T02:05:03;6.10;;;1.10;;
18449;SDS011;9354;50.194;7.690;2023-09-19T02:07:31;3.10;;;1.00;;
18449;SDS011;9354;50.194;7.690;2023-09-19T02:09:59;2.83;;;0.90;;
18449;SDS011;9354;50.194;7.690;2023-09-19T02:12:26;3.30;;;1.23;;
18449;SDS011;9354;50.194;7.690;2023-09-19T02:14:54;5.33;;;0.97;;
18449;SDS011;9354;50.194;7.690;2023-09-19T02:17:22;3.77;;;0.83;;
18449;SDS011;9354;50.194;7.690;2023-09-19T02:19:53;5.93;;;1.13;;
18449;SDS011;9354;50.194;7.690;2023-09-19T02:22:20;4.93;;;1.07;;
18449;SDS011;9354;50.194;7.690;2023-09-19T02:24:48;4.27;;;1.10;;
18449;SDS011;9354;50.194;7.690;2023-09-19T02:27:16;9.60;;;0.93;;
18449;SDS011;9354;50.194;7.690;2023-09-19T02:29:44;3.90;;;1.27;;
18449;SDS011;9354;50.194;7.690;2023-09-19T02:32:12;2.83;;;1.10;;
18449;SDS011;9354;50.194;7.690;2023-09-19T02:34:39;6.07;;;1.20;;
18449;SDS011;9354;50.194;7.690;2023-09-19T02:37:08;4.57;;;1.20;;
18449;SDS011;9354;50.194;7.690;2023-09-19T02:39:38;3.47;;;1.17;;
18449;SDS011;9354;50.194;7.690;2023-09-19T02:42:06;2.43;;;1.20;;
18449;SDS011;9354;50.194;7.690;2023-09-19T02:44:33;3.70;;;1.30;;
18449;SDS011;9354;50.194;7.690;2023-09-19T02:47:01;2.67;;;1.17;;
18449;SDS011;9354;50.194;7.690;2023-09-19T02:49:29;3.70;;;1.30;;
18449;SDS011;9354;50.194;7.690;2023-09-19T02:51:56;5.97;;;1.50;;
18449;SDS011;9354;50.194;7.690;2023-09-19T02:54:26;3.93;;;1.20;;
18449;SDS011;9354;50.194;7.690;2023-09-19T02:56:54;4.93;;;1.50;;
18449;SDS011;9354;50.194;7.690;2023-09-19T02:59:22;4.47;;;1.30;;
18449;SDS011;9354;50.194;7.690;2023-09-19T03:01:50;7.23;;;1.43;;
18449;SDS011;9354;50.194;7.690;2023-09-19T03:04:19;3.47;;;1.30;;
18449;SDS011;9354;50.194;7.690;2023-09-19T03:06:47;3.13;;;1.43;;
18449;SDS011;9354;50.194;7.690;2023-09-19T03:09:16;5.77;;;1.27;;
18449;SDS011;9354;50.194;7.690;2023-09-19T03:11:46;3.30;;;1.30;;
18449;SDS011;9354;50.194;7.690;2023-09-19T03:14:13;3.50;;;1.40;;
18449;SDS011;9354;50.194;7.690;2023-09-19T03:16:41;4.47;;;1.47;;
18449;SDS011;9354;50.194;7.690;2023-09-19T03:19:10;5.83;;;1.67;;
18449;SDS011;9354;50.194;7.690;2023-09-19T03:21:37;4.30;;;1.57;;
18449;SDS011;9354;50.194;7.690;2023-09-19T03:24:05;4.00;;;1.23;;
18449;SDS011;9354;50.194;7.690;2023-09-19T03:26:33;8.33;;;1.57;;
18449;SDS011;9354;50.194;7.690;2023-09-19T03:29:04;5.03;;;1.70;;
18449;SDS011;9354;50.194;7.690;2023-09-19T03:31:33;5.07;;;1.57;;
18449;SDS011;9354;50.194;7.690;2023-09-19T03:34:02;4.00;;;1.40;;
18449;SDS011;9354;50.194;7.690;2023-09-19T03:36:30;4.67;;;1.20;;
18449;SDS011;9354;50.194;7.690;2023-09-19T03:39:00;3.17;;;1.40;;
18449;SDS011;9354;50.194;7.690;2023-09-19T03:41:30;3.40;;;1.47;;
18449;SDS011;9354;50.194;7.690;2023-09-19T03:43:58;6.77;;;1.77;;
18449;SDS011;9354;50.194;7.690;2023-09-19T03:46:27;2.43;;;1.40;;
18449;SDS011;9354;50.194;7.690;2023-09-19T03:48:55;4.90;;;1.57;;
18449;SDS011;9354;50.194;7.690;2023-09-19T03:51:23;7.47;;;1.80;;
18449;SDS011;9354;50.194;7.690;2023-09-19T03:53:50;5.37;;;1.70;;
18449;SDS011;9354;50.194;7.690;2023-09-19T03:56:17;6.13;;;1.50;;
18449;SDS011;9354;50.194;7.690;2023-09-19T03:58:45;1.97;;;1.30;;
18449;SDS011;9354;50.194;7.690;2023-09-19T04:01:12;4.07;;;1.87;;
18449;SDS011;9354;50.194;7.690;2023-09-19T04:03:41;5.87;;;1.40;;
18449;SDS011;9354;50.194;7.690;2023-09-19T04:06:16;4.60;;;1.70;;
18449;SDS011;9354;50.194;7.690;2023-09-19T04:08:43;6.70;;;1.90;;
18449;SDS011;9354;50.194;7.690;2023-09-19T04:11:12;6.30;;;1.77;;
18449;SDS011;9354;50.194;7.690;2023-09-19T04:13:39;4.50;;;1.40;;
18449;SDS011;9354;50.194;7.690;2023-09-19T04:16:06;6.00;;;1.73;;
18449;SDS011;9354;50.194;7.690;2023-09-19T04:18:34;4.30;;;1.50;;
18449;SDS011;9354;50.194;7.690;2023-09-19T04:21:05;6.87;;;1.40;;
18449;SDS011;9354;50.194;7.690;2023-09-19T04:23:32;3.30;;;1.40;;
18449;SDS011;9354;50.194;7.690;2023-09-19T04:26:00;3.60;;;1.53;;
18449;SDS011;9354;50.194;7.690;2023-09-19T04:28:29;3.83;;;1.60;;
18449;SDS011;9354;50.194;7.690;2023-09-19T04:30:57;4.73;;;1.63;;
18449;SDS011;9354;50.194;7.690;2023-09-19T04:33:25;8.80;;;1.70;;
18449;SDS011;9354;50.194;7.690;2023-09-19T04:35:53;4.40;;;1.27;;
18449;SDS011;9354;50.194;7.690;2023-09-19T04:38:22;4.53;;;1.67;;
18449;SDS011;9354;50.194;7.690;2023-09-19T04:40:49;9.63;;;2.23;;
18449;SDS011;9354;50.194;7.690;2023-09-19T04:43:24;9.13;;;1.67;;
18449;SDS011;9354;50.194;7.690;2023-09-19T04:45:51;5.67;;;1.67;;
18449;SDS011;9354;50.194;7.690;2023-09-19T04:48:21;7.30;;;2.07;;
18449;SDS011;9354;50.194;7.690;2023-09-19T04:50:50;8.57;;;1.87;;
18449;SDS011;9354;50.194;7.690;2023-09-19T04:53:18;5.90;;;1.50;;
18449;SDS011;9354;50.194;7.690;2023-09-19T04:55:50;5.83;;;1.50;;
18449;SDS011;9354;50.194;7.690;2023-09-19T04:58:21;8.27;;;1.63;;
18449;SDS011;9354;50.194;7.690;2023-09-19T05:00:48;6.73;;;1.37;;
18449;SDS011;9354;50.194;7.690;2023-09-19T05:03:16;5.07;;;1.43;;
18449;SDS011;9354;50.194;7.690;2023-09-19T05:05:46;9.63;;;2.40;;
18449;SDS011;9354;50.194;7.690;2023-09-19T05:08:13;7.97;;;2.40;;
18449;SDS011;9354;50.194;7.690;2023-09-19T05:10:41;6.60;;;1.50;;
18449;SDS011;9354;50.194;7.690;2023-09-19T05:13:10;5.33;;;1.50;;
18449;SDS011;9354;50.194;7.690;2023-09-19T05:15:37;5.47;;;1.83;;
18449;SDS011;9354;50.194;7.690;2023-09-19T05:18:05;6.60;;;1.50;;
18449;SDS011;9354;50.194;7.690;2023-09-19T05:20:32;4.17;;;1.40;;
18449;SDS011;9354;50.194;7.690;2023-09-19T05:23:02;7.03;;;1.60;;
18449;SDS011;9354;50.194;7.690;2023-09-19T05:25:33;5.63;;;1.60;;
18449;SDS011;9354;50.194;7.690;2023-09-19T05:28:03;6.57;;;1.47;;
18449;SDS011;9354;50.194;7.690;2023-09-19T05:30:32;6.97;;;1.67;;
18449;SDS011;9354;50.194;7.690;2023-09-19T05:33:01;6.30;;;1.67;;
18449;SDS011;9354;50.194;7.690;2023-09-19T05:35:30;4.70;;;1.80;;
18449;SDS011;9354;50.194;7.690;2023-09-19T05:37:58;6.50;;;1.63;;
18449;SDS011;9354;50.194;7.690;2023-09-19T05:40:25;7.30;;;1.50;;
18449;SDS011;9354;50.194;7.690;2023-09-19T05:42:53;5.00;;;1.40;;
18449;SDS011;9354;50.194;7.690;2023-09-19T05:45:20;7.10;;;1.60;;
18449;SDS011;9354;50.194;7.690;2023-09-19T05:47:50;6.10;;;1.50;;
18449;SDS011;9354;50.194;7.690;2023-09-19T05:50:21;8.53;;;1.37;;
18449;SDS011;9354;50.194;7.690;2023-09-19T05:52:52;4.17;;;1.40;;
18449;SDS011;9354;50.194;7.690;2023-09-19T05:55:21;4.57;;;1.70;;
18449;SDS011;9354;50.194;7.690;2023-09-19T05:57:50;4.87;;;1.53;;
18449;SDS011;9354;50.194;7.690;2023-09-19T06:00:18;7.83;;;1.40;;
18449;SDS011;9354;50.194;7.690;2023-09-19T06:02:50;7.93;;;1.30;;
18449;SDS011;9354;50.194;7.690;2023-09-19T06:05:19;6.20;;;1.47;;
18449;SDS011;9354;50.194;7.690;2023-09-19T06:07:46;6.13;;;1.80;;
18449;SDS011;9354;50.194;7.690;2023-09-19T06:10:14;8.23;;;1.57;;
18449;SDS011;9354;50.194;7.690;2023-09-19T06:12:43;5.23;;;1.53;;
18449;SDS011;9354;50.194;7.690;2023-09-19T06:15:11;7.37;;;1.70;;
18449;SDS011;9354;50.194;7.690;2023-09-19T06:17:41;8.47;;;1.70;;
18449;SDS011;9354;50.194;7.690;2023-09-19T06:20:10;2.73;;;1.37;;
18449;SDS011;9354;50.194;7.690;2023-09-19T06:22:40;5.27;;;1.60;;
18449;SDS011;9354;50.194;7.690;2023-09-19T06:25:08;7.23;;;1.80;;
18449;SDS011;9354;50.194;7.690;2023-09-19T06:27:37;5.73;;;1.70;;
18449;SDS011;9354;50.194;7.690;2023-09-19T06:30:08;6.33;;;1.27;;
18449;SDS011;9354;50.194;7.690;2023-09-19T06:32:37;7.30;;;2.17;;
18449;SDS011;9354;50.194;7.690;2023-09-19T06:35:04;4.20;;;1.70;;
18449;SDS011;9354;50.194;7.690;2023-09-19T06:37:35;4.33;;;1.33;;
18449;SDS011;9354;50.194;7.690;2023-09-19T06:40:05;6.50;;;1.53;;
18449;SDS011;9354;50.194;7.690;2023-09-19T06:42:39;7.70;;;1.60;;
18449;SDS011;9354;50.194;7.690;2023-09-19T06:45:07;3.53;;;1.23;;
18449;SDS011;9354;50.194;7.690;2023-09-19T06:47:37;5.17;;;1.33;;
18449;SDS011;9354;50.194;7.690;2023-09-19T06:50:05;5.87;;;1.50;;
18449;SDS011;9354;50.194;7.690;2023-09-19T06:52:39;8.27;;;1.77;;
18449;SDS011;9354;50.194;7.690;2023-09-19T06:55:08;7.00;;;1.73;;
18449;SDS011;9354;50.194;7.690;2023-09-19T06:57:37;5.20;;;1.40;;
18449;SDS011;9354;50.194;7.690;2023-09-19T07:00:06;9.27;;;1.63;;
18449;SDS011;9354;50.194;7.690;2023-09-19T07:02:40;7.50;;;1.80;;
18449;SDS011;9354;50.194;7.690;2023-09-19T07:05:08;7.50;;;1.40;;
18449;SDS011;9354;50.194;7.690;2023-09-19T07:07:36;4.47;;;1.50;;
18449;SDS011;9354;50.194;7.690;2023-09-19T07:10:05;9.77;;;1.43;;
18449;SDS011;9354;50.194;7.690;2023-09-19T07:12:33;10.53;;;1.97;;
18449;SDS011;9354;50.194;7.690;2023-09-19T07:15:01;7.23;;;1.80;;
18449;SDS011;9354;50.194;7.690;2023-09-19T07:17:28;9.50;;;1.60;;
18449;SDS011;9354;50.194;7.690;2023-09-19T07:19:56;13.50;;;1.83;;
18449;SDS011;9354;50.194;7.690;2023-09-19T07:22:24;8.07;;;1.60;;
18449;SDS011;9354;50.194;7.690;2023-09-19T07:24:53;7.97;;;1.90;;
18449;SDS011;9354;50.194;7.690;2023-09-19T07:27:21;7.73;;;2.03;;
18449;SDS011;9354;50.194;7.690;2023-09-19T07:29:49;7.67;;;1.50;;
18449;SDS011;9354;50.194;7.690;2023-09-19T07:32:16;10.97;;;3.27;;
18449;SDS011;9354;50.194;7.690;2023-09-19T07:34:43;7.13;;;2.10;;
18449;SDS011;9354;50.194;7.690;2023-09-19T07:37:11;6.87;;;1.77;;
18449;SDS011;9354;50.194;7.690;2023-09-19T07:39:41;13.30;;;2.07;;
18449;SDS011;9354;50.194;7.690;2023-09-19T07:42:08;11.50;;;1.77;;
18449;SDS011;9354;50.194;7.690;2023-09-19T07:44:38;7.80;;;2.00;;
18449;SDS011;9354;50.194;7.690;2023-09-19T07:47:05;9.53;;;1.50;;
18449;SDS011;9354;50.194;7.690;2023-09-19T07:49:33;8.03;;;1.70;;
18449;SDS011;9354;50.194;7.690;2023-09-19T07:52:00;9.40;;;1.50;;
18449;SDS011;9354;50.194;7.690;2023-09-19T07:54:28;7.00;;;1.73;;
18449;SDS011;9354;50.194;7.690;2023-09-19T07:57:01;16.27;;;2.07;;
18449;SDS011;9354;50.194;7.690;2023-09-19T07:59:28;5.70;;;1.30;;
18449;SDS011;9354;50.194;7.690;2023-09-19T08:01:57;10.03;;;1.77;;
18449;SDS011;9354;50.194;7.690;2023-09-19T08:04:24;9.20;;;1.90;;
18449;SDS011;9354;50.194;7.690;2023-09-19T08:06:52;6.20;;;1.77;;
18449;SDS011;9354;50.194;7.690;2023-09-19T08:09:21;10.00;;;1.70;;
18449;SDS011;9354;50.194;7.690;2023-09-19T08:11:48;9.83;;;2.40;;
18449;SDS011;9354;50.194;7.690;2023-09-19T08:14:16;9.70;;;2.47;;
18449;SDS011;9354;50.194;7.690;2023-09-19T08:16:44;7.67;;;1.77;;
18449;SDS011;9354;50.194;7.690;2023-09-19T08:19:12;5.87;;;1.77;;
18449;SDS011;9354;50.194;7.690;2023-09-19T08:21:40;7.57;;;1.83;;
18449;SDS011;9354;50.194;7.690;2023-09-19T08:24:11;5.97;;;1.43;;
18449;SDS011;9354;50.194;7.690;2023-09-19T08:26:40;11.03;;;1.83;;
18449;SDS011;9354;50.194;7.690;2023-09-19T08:29:08;8.20;;;2.20;;
18449;SDS011;9354;50.194;7.690;2023-09-19T08:31:37;9.73;;;1.87;;
18449;SDS011;9354;50.194;7.690;2023-09-19T08:34:05;9.00;;;1.90;;
18449;SDS011;9354;50.194;7.690;2023-09-19T08:36:33;8.93;;;2.13;;
18449;SDS011;9354;50.194;7.690;2023-09-19T08:39:02;13.47;;;1.90;;
18449;SDS011;9354;50.194;7.690;2023-09-19T08:41:30;7.93;;;2.10;;
18449;SDS011;9354;50.194;7.690;2023-09-19T08:43:58;11.57;;;2.20;;
18449;SDS011;9354;50.194;7.690;2023-09-19T08:46:27;12.17;;;1.90;;
18449;SDS011;9354;50.194;7.690;2023-09-19T08:49:03;7.93;;;1.80;;
18449;SDS011;9354;50.194;7.690;2023-09-19T08:51:39;12.03;;;1.60;;
18449;SDS011;9354;50.194;7.690;2023-09-19T08:54:11;8.13;;;1.60;;
18449;SDS011;9354;50.194;7.690;2023-09-19T08:56:48;10.60;;;2.00;;
18449;SDS011;9354;50.194;7.690;2023-09-19T08:59:17;6.23;;;1.70;;
18449;SDS011;9354;50.194;7.690;2023-09-19T09:01:51;9.47;;;1.83;;
18449;SDS011;9354;50.194;7.690;2023-09-19T09:04:19;11.67;;;2.00;;
18449;SDS011;9354;50.194;7.690;2023-09-19T09:06:50;9.90;;;1.83;;
18449;SDS011;9354;50.194;7.690;2023-09-19T09:09:19;12.10;;;2.53;;
18449;SDS011;9354;50.194;7.690;2023-09-19T09:11:48;12.40;;;2.30;;
18449;SDS011;9354;50.194;7.690;2023-09-19T09:14:18;11.37;;;1.87;;
18449;SDS011;9354;50.194;7.690;2023-09-19T09:16:47;8.00;;;1.50;;
18449;SDS011;9354;50.194;7.690;2023-09-19T09:19:15;11.03;;;1.80;;
18449;SDS011;9354;50.194;7.690;2023-09-19T09:21:51;7.63;;;2.07;;
18449;SDS011;9354;50.194;7.690;2023-09-19T09:24:28;11.87;;;2.23;;
18449;SDS011;9354;50.194;7.690;2023-09-19T09:26:56;7.77;;;1.73;;
18449;SDS011;9354;50.194;7.690;2023-09-19T09:29:39;7.37;;;1.70;;
18449;SDS011;9354;50.194;7.690;2023-09-19T09:32:21;12.03;;;1.80;;
18449;SDS011;9354;50.194;7.690;2023-09-19T09:34:50;8.47;;;1.60;;
18449;SDS011;9354;50.194;7.690;2023-09-19T09:37:20;9.17;;;1.83;;
18449;SDS011;9354;50.194;7.690;2023-09-19T09:39:50;12.43;;;2.03;;
18449;SDS011;9354;50.194;7.690;2023-09-19T09:42:31;6.63;;;1.87;;
18449;SDS011;9354;50.194;7.690;2023-09-19T09:47:54;8.80;;;1.80;;
18449;SDS011;9354;50.194;7.690;2023-09-19T09:50:28;13.63;;;1.90;;
18449;SDS011;9354;50.194;7.690;2023-09-19T09:53:08;6.27;;;1.60;;
18449;SDS011;9354;50.194;7.690;2023-09-19T09:55:56;11.90;;;1.60;;
18449;SDS011;9354;50.194;7.690;2023-09-19T09:58:25;5.80;;;1.50;;
18449;SDS011;9354;50.194;7.690;2023-09-19T10:00:54;10.47;;;2.00;;
18449;SDS011;9354;50.194;7.690;2023-09-19T10:03:33;12.30;;;1.93;;
18449;SDS011;9354;50.194;7.690;2023-09-19T10:06:08;9.23;;;1.60;;
18449;SDS011;9354;50.194;7.690;2023-09-19T10:08:59;10.40;;;1.67;;
18449;SDS011;9354;50.194;7.690;2023-09-19T10:11:42;11.37;;;1.80;;
18449;SDS011;9354;50.194;7.690;2023-09-19T10:14:11;11.90;;;1.67;;
18449;SDS011;9354;50.194;7.690;2023-09-19T10:16:41;7.57;;;1.87;;
18449;SDS011;9354;50.194;7.690;2023-09-19T10:19:14;8.10;;;1.80;;
18449;SDS011;9354;50.194;7.690;2023-09-19T10:21:46;6.27;;;1.60;;
18449;SDS011;9354;50.194;7.690;2023-09-19T10:24:16;10.67;;;1.73;;
18449;SDS011;9354;50.194;7.690;2023-09-19T10:26:44;8.57;;;1.83;;
18449;SDS011;9354;50.194;7.690;2023-09-19T10:29:16;10.63;;;1.53;;
18449;SDS011;9354;50.194;7.690;2023-09-19T10:31:46;4.97;;;1.70;;
18449;SDS011;9354;50.194;7.690;2023-09-19T10:34:16;11.60;;;1.90;;
18449;SDS011;9354;50.194;7.690;2023-09-19T10:36:45;8.50;;;1.77;;
18449;SDS011;9354;50.194;7.690;2023-09-19T10:39:14;10.60;;;1.40;;
18449;SDS011;9354;50.194;7.690;2023-09-19T10:41:47;7.37;;;1.80;;
18449;SDS011;9354;50.194;7.690;2023-09-19T10:44:21;5.60;;;1.57;;
18449;SDS011;9354;50.194;7.690;2023-09-19T10:46:51;4.90;;;1.30;;
18449;SDS011;9354;50.194;7.690;2023-09-19T10:49:19;8.97;;;1.50;;
18449;SDS011;9354;50.194;7.690;2023-09-19T10:51:49;6.43;;;1.47;;
18449;SDS011;9354;50.194;7.690;2023-09-19T10:54:23;7.67;;;1.80;;
18449;SDS011;9354;50.194;7.690;2023-09-19T10:56:53;5.03;;;1.50;;
18449;SDS011;9354;50.194;7.690;2023-09-19T10:59:24;5.87;;;1.63;;
18449;SDS011;9354;50.194;7.690;2023-09-19T11:01:57;6.50;;;1.60;;
18449;SDS011;9354;50.194;7.690;2023-09-19T11:04:26;8.93;;;1.80;;
18449;SDS011;9354;50.194;7.690;2023-09-19T11:06:59;6.13;;;1.70;;
18449;SDS011;9354;50.194;7.690;2023-09-19T11:09:45;7.33;;;1.60;;
18449;SDS011;9354;50.194;7.690;2023-09-19T11:24:28;6.73;;;1.60;;
18449;SDS011;9354;50.194;7.690;2023-09-19T11:27:18;8.47;;;1.67;;
18449;SDS011;9354;50.194;7.690;2023-09-19T11:29:45;5.97;;;1.30;;
18449;SDS011;9354;50.194;7.690;2023-09-19T11:32:14;4.17;;;1.40;;
18449;SDS011;9354;50.194;7.690;2023-09-19T11:34:48;8.07;;;1.57;;
18449;SDS011;9354;50.194;7.690;2023-09-19T11:40:36;6.47;;;1.70;;
18449;SDS011;9354;50.194;7.690;2023-09-19T11:46:08;9.60;;;1.77;;
18449;SDS011;9354;50.194;7.690;2023-09-19T11:48:38;8.40;;;1.60;;
18449;SDS011;9354;50.194;7.690;2023-09-19T11:53:55;5.20;;;1.43;;
18449;SDS011;9354;50.194;7.690;2023-09-19T11:56:24;7.03;;;1.43;;
18449;SDS011;9354;50.194;7.690;2023-09-19T11:58:55;7.07;;;1.30;;
18449;SDS011;9354;50.194;7.690;2023-09-19T12:01:24;9.40;;;1.40;;
18449;SDS011;9354;50.194;7.690;2023-09-19T12:03:55;9.80;;;1.50;;
18449;SDS011;9354;50.194;7.690;2023-09-19T12:06:24;12.63;;;2.03;;
18449;SDS011;9354;50.194;7.690;2023-09-19T12:08:52;7.63;;;1.80;;
18449;SDS011;9354;50.194;7.690;2023-09-19T12:11:21;10.20;;;1.40;;
18449;SDS011;9354;50.194;7.690;2023-09-19T12:13:50;4.47;;;1.17;;
18449;SDS011;9354;50.194;7.690;2023-09-19T12:16:20;9.90;;;1.50;;
18449;SDS011;9354;50.194;7.690;2023-09-19T12:18:49;5.60;;;1.40;;
18449;SDS011;9354;50.194;7.690;2023-09-19T12:21:23;8.03;;;1.40;;
18449;SDS011;9354;50.194;7.690;2023-09-19T12:26:39;7.13;;;1.57;;
18449;SDS011;9354;50.194;7.690;2023-09-19T12:29:15;5.67;;;1.10;;
18449;SDS011;9354;50.194;7.690;2023-09-19T12:31:51;7.50;;;1.40;;
18449;SDS011;9354;50.194;7.690;2023-09-19T12:34:23;7.47;;;1.30;;
18449;SDS011;9354;50.194;7.690;2023-09-19T12:37:08;5.70;;;1.37;;
18449;SDS011;9354;50.194;7.690;2023-09-19T12:39:42;6.20;;;1.40;;
18449;SDS011;9354;50.194;7.690;2023-09-19T12:42:14;5.23;;;1.30;;
18449;SDS011;9354;50.194;7.690;2023-09-19T12:44:43;7.80;;;1.70;;
18449;SDS011;9354;50.194;7.690;2023-09-19T12:47:14;7.23;;;1.37;;
18449;SDS011;9354;50.194;7.690;2023-09-19T12:52:43;7.50;;;1.33;;
18449;SDS011;9354;50.194;7.690;2023-09-19T12:55:22;5.03;;;1.20;;
18449;SDS011;9354;50.194;7.690;2023-09-19T12:58:01;6.70;;;1.40;;
18449;SDS011;9354;50.194;7.690;2023-09-19T13:00:35;4.97;;;1.40;;
18449;SDS011;9354;50.194;7.690;2023-09-19T13:05:57;4.93;;;1.40;;
18449;SDS011;9354;50.194;7.690;2023-09-19T13:08:27;5.00;;;1.20;;
18449;SDS011;9354;50.194;7.690;2023-09-19T13:11:10;5.00;;;1.20;;
18449;SDS011;9354;50.194;7.690;2023-09-19T13:13:39;4.73;;;1.13;;
18449;SDS011;9354;50.194;7.690;2023-09-19T13:16:09;7.37;;;1.13;;
18449;SDS011;9354;50.194;7.690;2023-09-19T13:18:45;5.53;;;1.30;;
18449;SDS011;9354;50.194;7.690;2023-09-19T13:21:16;4.50;;;1.03;;
18449;SDS011;9354;50.194;7.690;2023-09-19T13:23:53;3.73;;;0.90;;
18449;SDS011;9354;50.194;7.690;2023-09-19T13:26:25;4.77;;;1.10;;
18449;SDS011;9354;50.194;7.690;2023-09-19T13:28:53;6.30;;;1.30;;
18449;SDS011;9354;50.194;7.690;2023-09-19T13:31:21;4.33;;;1.27;;
18449;SDS011;9354;50.194;7.690;2023-09-19T13:33:50;4.10;;;1.20;;
18449;SDS011;9354;50.194;7.690;2023-09-19T13:36:18;4.40;;;1.30;;
18449;SDS011;9354;50.194;7.690;2023-09-19T13:38:45;7.20;;;1.17;;
18449;SDS011;9354;50.194;7.690;2023-09-19T13:41:14;6.17;;;0.90;;
18449;SDS011;9354;50.194;7.690;2023-09-19T13:43:42;6.43;;;1.67;;
18449;SDS011;9354;50.194;7.690;2023-09-19T13:46:15;5.10;;;1.40;;
18449;SDS011;9354;50.194;7.690;2023-09-19T13:48:43;6.57;;;1.20;;
18449;SDS011;9354;50.194;7.690;2023-09-19T13:51:12;3.23;;;1.20;;
18449;SDS011;9354;50.194;7.690;2023-09-19T13:53:40;3.90;;;0.90;;
18449;SDS011;9354;50.194;7.690;2023-09-19T13:56:07;6.47;;;1.50;;
18449;SDS011;9354;50.194;7.690;2023-09-19T13:58:35;6.40;;;1.17;;
18449;SDS011;9354;50.194;7.690;2023-09-19T14:01:02;2.13;;;1.10;;
18449;SDS011;9354;50.194;7.690;2023-09-19T14:03:30;4.13;;;1.03;;
18449;SDS011;9354;50.194;7.690;2023-09-19T14:05:57;4.87;;;1.27;;
18449;SDS011;9354;50.194;7.690;2023-09-19T14:08:26;7.43;;;1.43;;
18449;SDS011;9354;50.194;7.690;2023-09-19T14:10:53;5.17;;;1.20;;
18449;SDS011;9354;50.194;7.690;2023-09-19T14:13:20;5.03;;;1.30;;
18449;SDS011;9354;50.194;7.690;2023-09-19T14:15:48;4.90;;;1.60;;
18449;SDS011;9354;50.194;7.690;2023-09-19T14:18:15;7.90;;;1.20;;
18449;SDS011;9354;50.194;7.690;2023-09-19T14:20:44;4.17;;;1.30;;
18449;SDS011;9354;50.194;7.690;2023-09-19T14:23:11;3.73;;;1.30;;
18449;SDS011;9354;50.194;7.690;2023-09-19T14:25:40;3.43;;;1.37;;
18449;SDS011;9354;50.194;7.690;2023-09-19T14:28:07;6.33;;;1.27;;
18449;SDS011;9354;50.194;7.690;2023-09-19T14:30:35;7.70;;;1.20;;
18449;SDS011;9354;50.194;7.690;2023-09-19T14:33:04;7.63;;;2.00;;
18449;SDS011;9354;50.194;7.690;2023-09-19T14:35:31;2.40;;;1.30;;
18449;SDS011;9354;50.194;7.690;2023-09-19T14:37:59;7.27;;;1.20;;
18449;SDS011;9354;50.194;7.690;2023-09-19T14:40:26;6.60;;;1.63;;
18449;SDS011;9354;50.194;7.690;2023-09-19T14:42:55;6.17;;;1.17;;
18449;SDS011;9354;50.194;7.690;2023-09-19T14:45:22;4.50;;;1.50;;
18449;SDS011;9354;50.194;7.690;2023-09-19T14:47:51;4.57;;;1.10;;
18449;SDS011;9354;50.194;7.690;2023-09-19T14:50:20;3.50;;;1.40;;
18449;SDS011;9354;50.194;7.690;2023-09-19T14:52:48;6.73;;;1.43;;
18449;SDS011;9354;50.194;7.690;2023-09-19T14:55:17;3.10;;;1.10;;
18449;SDS011;9354;50.194;7.690;2023-09-19T14:57:48;3.93;;;1.10;;
18449;SDS011;9354;50.194;7.690;2023-09-19T15:00:18;5.70;;;1.10;;
18449;SDS011;9354;50.194;7.690;2023-09-19T15:02:47;5.13;;;1.10;;
18449;SDS011;9354;50.194;7.690;2023-09-19T15:05:15;6.23;;;1.30;;
18449;SDS011;9354;50.194;7.690;2023-09-19T15:07:43;7.90;;;1.30;;
18449;SDS011;9354;50.194;7.690;2023-09-19T15:10:10;7.23;;;1.20;;
18449;SDS011;9354;50.194;7.690;2023-09-19T15:12:38;6.83;;;1.20;;
18449;SDS011;9354;50.194;7.690;2023-09-19T15:15:06;4.17;;;1.30;;
18449;SDS011;9354;50.194;7.690;2023-09-19T15:17:36;3.77;;;1.20;;
18449;SDS011;9354;50.194;7.690;2023-09-19T15:20:04;4.07;;;0.90;;
18449;SDS011;9354;50.194;7.690;2023-09-19T15:22:33;3.80;;;1.33;;
18449;SDS011;9354;50.194;7.690;2023-09-19T15:25:01;5.67;;;1.10;;
18449;SDS011;9354;50.194;7.690;2023-09-19T15:27:29;5.23;;;1.00;;
18449;SDS011;9354;50.194;7.690;2023-09-19T15:29:58;1.93;;;0.80;;
18449;SDS011;9354;50.194;7.690;2023-09-19T15:32:28;2.47;;;1.00;;
18449;SDS011;9354;50.194;7.690;2023-09-19T15:34:57;2.43;;;0.87;;
18449;SDS011;9354;50.194;7.690;2023-09-19T15:37:24;7.67;;;1.23;;
18449;SDS011;9354;50.194;7.690;2023-09-19T15:39:52;4.57;;;0.80;;
18449;SDS011;9354;50.194;7.690;2023-09-19T15:42:19;3.43;;;0.90;;
18449;SDS011;9354;50.194;7.690;2023-09-19T15:44:47;4.07;;;1.03;;
18449;SDS011;9354;50.194;7.690;2023-09-19T15:47:16;7.07;;;1.00;;
18449;SDS011;9354;50.194;7.690;2023-09-19T15:49:45;6.90;;;1.10;;